Sagunto, Spain
Current Conditions -  °F | °C
As of 7:00 PM on Thursday 30 Oct 2014 (Local Time) from LEBT Reporting Station
Clear Clear  
Wind Chill: 64°   Ceiling: Unl
Heat Index: 64°   Visibility: 6mi
Dew Point: 61°   Wind: 7mph
Humidity: 88%   Direction: 80°E
Pressure: 30.21"   Gusts: NA
Location:  39.68°N, 0.27°W
Report Text: LEBT 301800Z AUTO 08006KT 060V120 CAVOK 18/16 Q1023
Loading
Personal Weather Stations






























Interactive Weather Map
Tropical Storm Tracking
New forecast layout! Learn more

10-Day Weather Forecast

Advertisements
Track Severe Weather on mobile